Time;durP1;ratioP1;P1;durP2;ratioP2;P2;SDS_P1;SDS_P2;PMS_P1;PMS_P2;Temp;Humidity;BMP_temperature;BMP_pressure;BME280_temperature;BME280_humidity;BME280_pressure;Samples;Min_cycle;Max_cycle;Signal;HPM_P1;HPM_P2
2022/08/23 00:01:23;;;;;;;;;;;;;;;17.40;56.10;96402.88;5073059;28;20491;-74
2022/08/23 00:03:50;;;;;;;;;;;;;;;17.37;56.13;96402.63;5073217;28;20452;-74
2022/08/23 00:06:16;;;;;;;;;;;;;;;17.32;56.34;96408.69;5073028;28;19966;-73
2022/08/23 00:08:44;;;;;;;;;;;;;;;17.29;56.15;96400.47;5074044;28;19974;-75
2022/08/23 00:11:45;;;;;;;;;;;;;;;17.24;56.42;96401.28;5076816;28;19957;-73
2022/08/23 00:14:17;;;;;;;;;;;;;;;17.20;56.55;96397.56;5054216;28;19982;-73
2022/08/23 00:16:43;;;;;;;;;;;;;;;17.17;56.58;96396.19;5052068;28;19967;-73
2022/08/23 00:19:11;;;;;;;;;;;;;;;17.14;56.95;96398.59;5055702;28;19957;-73
2022/08/23 00:21:38;;;;;;;;;;;;;;;17.11;57.08;96399.88;5056587;28;19963;-72
2022/08/23 00:24:06;;;;;;;;;;;;;;;17.08;57.30;96399.63;5057049;28;19962;-72
2022/08/23 00:26:50;;;;;;;;;;;;;;;17.04;57.61;96394.84;5056345;28;19977;-72
2022/08/23 00:29:16;;;;;;;;;;;;;;;17.01;56.92;96387.41;5056431;28;19972;-73
2022/08/23 00:31:42;;;;;;;;;;;;;;;16.98;57.31;96395.88;5056476;28;19956;-73
2022/08/23 00:34:08;;;;;;;;;;;;;;;16.96;57.00;96394.53;5055059;28;20380;-73
2022/08/23 00:36:33;;;;;;;;;;;;;;;16.91;57.79;96394.53;5057031;28;19964;-73
2022/08/23 00:39:00;;;;;;;;;;;;;;;16.86;57.71;96390.00;5056315;28;19961;-73
2022/08/23 00:41:27;;;;;;;;;;;;;;;16.83;57.81;96388.66;5056419;28;19961;-73
2022/08/23 00:49:27;;;;;;;;;;;;;;;16.77;58.06;96381.72;5049851;28;19956;-73
2022/08/23 00:52:08;;;;;;;;;;;;;;;16.74;58.29;96378.81;5056367;28;19962;-73
2022/08/23 00:54:36;;;;;;;;;;;;;;;16.71;58.78;96376.66;5055985;28;19963;-73
2022/08/23 00:57:04;;;;;;;;;;;;;;;16.68;58.48;96383.28;5043219;28;19955;-73
2022/08/23 00:59:30;;;;;;;;;;;;;;;16.64;58.26;96377.69;5055915;28;20374;-73
2022/08/23 01:01:57;;;;;;;;;;;;;;;16.61;58.45;96372.13;5055984;28;19963;-73
2022/08/23 01:04:25;;;;;;;;;;;;;;;16.57;58.73;96374.50;5055735;28;19978;-72
2022/08/23 01:06:58;;;;;;;;;;;;;;;16.55;58.66;96373.97;5055565;28;20466;-73
2022/08/23 01:09:24;;;;;;;;;;;;;;;16.53;59.08;96391.94;5055939;28;20344;-73
2022/08/23 01:12:04;;;;;;;;;;;;;;;16.50;58.81;96381.84;5055566;28;19967;-73
2022/08/23 01:14:34;;;;;;;;;;;;;;;16.49;59.02;96384.78;5062139;28;19992;-73
2022/08/23 01:17:08;;;;;;;;;;;;;;;16.45;59.07;96379.19;5075710;28;19974;-73
2022/08/23 01:19:36;;;;;;;;;;;;;;;16.42;59.20;96383.16;5075715;28;19956;-73
2022/08/23 01:22:10;;;;;;;;;;;;;;;16.39;59.44;96390.81;5075505;28;19955;-73
2022/08/23 01:24:37;;;;;;;;;;;;;;;16.36;59.37;96380.75;5075425;28;20302;-73
2022/08/23 01:27:03;;;;;;;;;;;;;;;16.34;59.22;96378.34;5075784;28;20422;-73
2022/08/23 01:29:29;;;;;;;;;;;;;;;16.33;59.38;96384.69;5075265;28;19964;-73
2022/08/23 01:31:55;;;;;;;;;;;;;;;16.31;59.71;96389.44;5074956;28;19966;-73
2022/08/23 01:34:25;;;;;;;;;;;;;;;16.29;59.54;96391.53;5075488;28;20042;-73
2022/08/23 01:36:51;;;;;;;;;;;;;;;16.25;59.65;96395.75;5075035;28;19969;-72
2022/08/23 01:39:17;;;;;;;;;;;;;;;16.22;59.57;96386.47;5075767;28;20305;-73
2022/08/23 01:41:43;;;;;;;;;;;;;;;16.20;59.91;96393.06;5075393;28;20057;-73
2022/08/23 01:44:09;;;;;;;;;;;;;;;16.16;60.61;96397.28;5075051;28;19955;-73
2022/08/23 01:46:35;;;;;;;;;;;;;;;16.12;60.25;96406.78;5075142;28;20030;-73
2022/08/23 01:49:02;;;;;;;;;;;;;;;16.08;60.44;96406.47;5075334;28;19962;-72
2022/08/23 01:51:28;;;;;;;;;;;;;;;16.06;60.45;96398.00;5075075;28;19955;-73
2022/08/23 01:53:54;;;;;;;;;;;;;;;16.02;60.62;96397.72;5074925;28;19998;-73
2022/08/23 01:56:21;;;;;;;;;;;;;;;16.01;60.73;96398.75;5075084;28;20066;-72
2022/08/23 01:58:48;;;;;;;;;;;;;;;15.98;60.89;96395.81;5074831;28;19960;-73
2022/08/23 02:01:14;;;;;;;;;;;;;;;15.96;61.07;96403.22;5074769;28;19967;-73
2022/08/23 02:03:40;;;;;;;;;;;;;;;15.92;61.21;96396.84;5074572;28;20414;-72
2022/08/23 02:06:06;;;;;;;;;;;;;;;15.89;61.26;96392.06;5074443;28;19983;-73
2022/08/23 02:11:18;;;;;;;;;;;;;;;15.81;61.32;96394.13;5074851;28;19955;-73
2022/08/23 02:13:44;;;;;;;;;;;;;;;15.79;61.68;96395.41;5074428;28;20324;-73
2022/08/23 02:16:10;;;;;;;;;;;;;;;15.78;61.87;96401.75;5074283;28;19987;-73
2022/08/23 02:18:37;;;;;;;;;;;;;;;15.74;61.63;96405.94;5074567;28;19964;-73
2022/08/23 02:21:03;;;;;;;;;;;;;;;15.71;61.75;96406.44;5074916;28;19970;-73
2022/08/23 02:23:29;;;;;;;;;;;;;;;15.69;61.70;96403.25;5074641;28;19956;-73
2022/08/23 02:25:56;;;;;;;;;;;;;;;15.67;62.06;96403.50;5074140;28;19971;-73
2022/08/23 02:28:22;;;;;;;;;;;;;;;15.65;61.93;96404.78;5074670;28;19966;-73
2022/08/23 02:30:48;;;;;;;;;;;;;;;15.63;61.96;96413.75;5073737;28;19955;-73
2022/08/23 02:33:15;;;;;;;;;;;;;;;15.62;61.67;96406.06;5074208;28;20307;-73
2022/08/23 02:35:41;;;;;;;;;;;;;;;15.63;61.46;96405.81;5074530;28;20428;-73
2022/08/23 02:38:10;;;;;;;;;;;;;;;15.62;61.91;96411.34;5074225;28;19956;-73
2022/08/23 02:40:36;;;;;;;;;;;;;;;15.60;61.91;96411.63;5074173;28;19979;-73
2022/08/23 02:43:03;;;;;;;;;;;;;;;15.56;61.81;96407.88;5073922;28;20431;-73
2022/08/23 02:45:29;;;;;;;;;;;;;;;15.56;62.08;96412.34;5073972;28;19964;-73
2022/08/23 02:47:55;;;;;;;;;;;;;;;15.53;62.38;96408.38;5073686;28;20316;-73
2022/08/23 02:50:22;;;;;;;;;;;;;;;15.48;62.88;96408.34;5073320;28;19972;-73
2022/08/23 02:52:48;;;;;;;;;;;;;;;15.46;62.74;96414.94;5073631;28;20386;-73
2022/08/23 02:55:15;;;;;;;;;;;;;;;15.41;63.28;96407.72;5073815;28;19977;-72
2022/08/23 02:57:41;;;;;;;;;;;;;;;15.39;63.22;96413.28;5066981;28;19974;-73
2022/08/23 03:00:09;;;;;;;;;;;;;;;15.36;63.55;96405.03;5073903;28;19966;-73
2022/08/23 03:02:35;;;;;;;;;;;;;;;15.32;63.25;96401.28;5073771;28;20409;-73
2022/08/23 03:05:02;;;;;;;;;;;;;;;15.30;63.80;96408.69;5073700;28;20296;-73
2022/08/23 03:07:29;;;;;;;;;;;;;;;15.28;63.46;96410.78;5073039;28;20423;-73
2022/08/23 03:09:55;;;;;;;;;;;;;;;15.26;63.21;96416.28;5074041;28;19965;-73
2022/08/23 03:12:21;;;;;;;;;;;;;;;15.24;63.63;96423.66;5073755;28;19967;-73
2022/08/23 03:14:49;;;;;;;;;;;;;;;15.22;63.69;96426.56;5073539;28;20405;-73
2022/08/23 03:17:15;;;;;;;;;;;;;;;15.20;63.88;96430.50;5073637;28;20429;-72
2022/08/23 03:19:41;;;;;;;;;;;;;;;15.18;63.36;96427.28;5073737;28;19966;-74
2022/08/23 03:22:07;;;;;;;;;;;;;;;15.17;63.21;96418.59;5073454;28;19961;-73
2022/08/23 03:24:34;;;;;;;;;;;;;;;15.17;63.46;96425.72;5063480;28;20011;-73
2022/08/23 03:26:59;;;;;;;;;;;;;;;15.15;63.89;96431.25;5073309;28;19970;-73
2022/08/23 03:29:25;;;;;;;;;;;;;;;15.14;63.55;96434.13;5073801;28;20127;-73
2022/08/23 03:31:51;;;;;;;;;;;;;;;15.13;63.59;96429.91;5073731;28;19978;-73
2022/08/23 03:34:17;;;;;;;;;;;;;;;15.11;63.72;96429.34;5073284;28;20323;-72
2022/08/23 03:36:43;;;;;;;;;;;;;;;15.09;63.45;96424.28;5073284;28;19968;-73
2022/08/23 03:39:09;;;;;;;;;;;;;;;15.10;63.59;96425.09;5073795;28;19981;-72
2022/08/23 03:41:35;;;;;;;;;;;;;;;15.08;63.72;96417.44;5073393;28;20001;-73
2022/08/23 03:44:01;;;;;;;;;;;;;;;15.07;63.77;96415.03;5076823;28;20335;-73
2022/08/23 03:46:26;;;;;;;;;;;;;;;15.06;63.54;96421.38;5077335;28;19979;-73
2022/08/23 03:48:54;;;;;;;;;;;;;;;15.05;63.62;96430.31;5077296;28;20474;-73
2022/08/23 03:51:21;;;;;;;;;;;;;;;15.04;63.73;96432.19;5077101;28;19967;-73
2022/08/23 03:53:48;;;;;;;;;;;;;;;15.05;64.00;96435.59;5077196;28;19948;-73
2022/08/23 03:56:25;;;;;;;;;;;;;;;15.01;64.09;96436.09;5077150;28;20422;-73
2022/08/23 03:58:51;;;;;;;;;;;;;;;14.98;64.48;96444.50;5076841;28;20354;-73
2022/08/23 04:01:17;;;;;;;;;;;;;;;14.94;64.54;96438.13;5077091;28;19975;-73
2022/08/23 04:03:43;;;;;;;;;;;;;;;14.92;64.19;96434.94;5076888;28;20478;-73
2022/08/23 04:06:10;;;;;;;;;;;;;;;14.88;64.49;96441.75;5077017;28;19954;-73
2022/08/23 04:08:36;;;;;;;;;;;;;;;14.86;64.74;96453.59;5076812;28;19966;-73
2022/08/23 04:11:02;;;;;;;;;;;;;;;14.83;64.87;96454.88;5077115;28;19959;-73
2022/08/23 04:13:28;;;;;;;;;;;;;;;14.77;65.27;96454.00;5076853;28;20426;-73
2022/08/23 04:15:55;;;;;;;;;;;;;;;14.73;65.46;96455.53;5076936;28;19983;-73
2022/08/23 04:18:21;;;;;;;;;;;;;;;14.69;65.00;96446.50;5076481;28;19972;-73
2022/08/23 04:20:48;;;;;;;;;;;;;;;14.65;65.36;96455.97;5076849;28;19957;-73
2022/08/23 04:23:14;;;;;;;;;;;;;;;14.63;65.29;96462.53;5076635;28;19975;-73
2022/08/23 04:25:42;;;;;;;;;;;;;;;14.59;65.12;96459.56;5076603;28;19957;-73
2022/08/23 04:28:08;;;;;;;;;;;;;;;14.56;65.47;96466.13;5076305;28;19992;-73
2022/08/23 04:30:33;;;;;;;;;;;;;;;14.54;65.45;96462.91;5076530;28;20063;-73
2022/08/23 04:32:59;;;;;;;;;;;;;;;14.51;65.08;96463.41;5076317;28;19963;-73
2022/08/23 04:35:25;;;;;;;;;;;;;;;14.51;65.56;96463.41;5076589;28;19971;-73
2022/08/23 04:37:52;;;;;;;;;;;;;;;14.50;65.91;96468.91;5076230;28;20292;-73
2022/08/23 04:43:03;;;;;;;;;;;;;;;14.42;65.96;96483.31;5076661;28;19959;-73
2022/08/23 04:45:31;;;;;;;;;;;;;;;14.40;66.32;96480.94;5076101;28;19966;-73
2022/08/23 04:47:57;;;;;;;;;;;;;;;14.38;66.07;96483.00;5075848;28;19982;-74
2022/08/23 04:50:23;;;;;;;;;;;;;;;14.36;66.48;96482.44;5076441;28;20045;-73
2022/08/23 04:52:49;;;;;;;;;;;;;;;14.34;66.52;96484.53;5076584;28;20341;-73
2022/08/23 04:55:15;;;;;;;;;;;;;;;14.36;66.91;96481.63;5075226;28;19959;-73
2022/08/23 04:57:41;;;;;;;;;;;;;;;14.36;66.97;96486.91;5075814;28;20448;-73
2022/08/23 05:00:09;;;;;;;;;;;;;;;14.36;66.93;96482.44;5076520;28;19963;-73
2022/08/23 05:02:35;;;;;;;;;;;;;;;14.37;66.87;96481.41;5075808;28;19964;-73
2022/08/23 05:05:01;;;;;;;;;;;;;;;14.45;66.35;96484.66;5076356;28;20343;-73
2022/08/23 05:07:28;;;;;;;;;;;;;;;14.60;66.46;96487.56;5075808;28;20370;-73
2022/08/23 05:09:54;;;;;;;;;;;;;;;14.78;66.80;96494.41;5075563;28;19960;-73
2022/08/23 05:12:20;;;;;;;;;;;;;;;14.97;66.50;96487.81;5075769;28;20064;-73
2022/08/23 05:14:46;;;;;;;;;;;;;;;15.18;66.07;96483.59;5075915;28;19986;-73
2022/08/23 05:17:12;;;;;;;;;;;;;;;15.44;65.41;96486.53;5075950;28;20066;-73
2022/08/23 05:19:38;;;;;;;;;;;;;;;15.74;64.93;96488.69;5075965;28;19967;-73
2022/08/23 05:22:04;;;;;;;;;;;;;;;16.07;64.80;96491.41;5075432;28;20359;-73
2022/08/23 05:24:29;;;;;;;;;;;;;;;16.41;63.93;96484.78;5075800;28;19955;-73
2022/08/23 05:26:55;;;;;;;;;;;;;;;16.78;62.32;96472.59;5075558;28;19973;-73
2022/08/23 05:29:21;;;;;;;;;;;;;;;17.16;61.95;96465.38;5075412;28;19965;-73
2022/08/23 05:31:47;;;;;;;;;;;;;;;17.55;60.73;96457.00;5075228;28;20013;-73
2022/08/23 05:34:13;;;;;;;;;;;;;;;17.94;59.97;96444.09;5075262;28;20001;-73
2022/08/23 05:36:39;;;;;;;;;;;;;;;18.30;58.89;96445.94;5075856;28;20003;-73
2022/08/23 05:39:05;;;;;;;;;;;;;;;18.59;57.32;96427.56;5073859;28;20417;-73
2022/08/23 05:41:31;;;;;;;;;;;;;;;18.86;56.54;96422.75;5074927;28;19976;-74
2022/08/23 05:43:57;;;;;;;;;;;;;;;19.15;55.40;96419.44;5074767;28;19972;-73
2022/08/23 05:46:23;;;;;;;;;;;;;;;19.42;55.15;96424.34;5073967;28;19965;-74
2022/08/23 05:48:50;;;;;;;;;;;;;;;19.70;54.59;96423.91;5074963;28;19987;-73
2022/08/23 05:51:23;;;;;;;;;;;;;;;19.96;53.47;96422.66;5074939;28;20336;-73
2022/08/23 05:53:50;;;;;;;;;;;;;;;20.21;52.91;96420.88;5074793;28;19959;-73
2022/08/23 05:56:18;;;;;;;;;;;;;;;20.45;52.46;96420.91;5074847;28;20444;-73
2022/08/23 05:58:45;;;;;;;;;;;;;;;20.70;51.96;96427.09;5074676;28;19960;-74
2022/08/23 06:01:12;;;;;;;;;;;;;;;20.95;51.41;96423.34;5075419;28;19962;-73
2022/08/23 06:03:38;;;;;;;;;;;;;;;21.16;51.04;96419.34;5074569;28;20334;-73
2022/08/23 06:06:05;;;;;;;;;;;;;;;21.38;50.79;96434.81;5074003;28;19955;-73
2022/08/23 06:08:33;;;;;;;;;;;;;;;21.58;50.22;96428.41;5074375;28;19982;-74
2022/08/23 06:11:12;;;;;;;;;;;;;;;21.76;49.12;96426.84;5075272;28;19959;-74
2022/08/23 06:13:40;;;;;;;;;;;;;;;21.87;49.24;96446.94;5074340;28;19954;-73
2022/08/23 06:16:06;;;;;;;;;;;;;;;21.95;48.75;96450.06;5074556;28;19982;-73
2022/08/23 06:18:32;;;;;;;;;;;;;;;21.94;48.80;96459.91;5074292;28;19964;-74
2022/08/23 06:21:02;;;;;;;;;;;;;;;22.06;48.44;96449.59;5074249;28;19963;-74
2022/08/23 06:23:29;;;;;;;;;;;;;;;22.08;48.20;96442.06;5074582;28;19966;-74
2022/08/23 06:25:55;;;;;;;;;;;;;;;22.02;48.56;96453.91;5074479;28;19962;-74
2022/08/23 06:28:21;;;;;;;;;;;;;;;21.87;48.60;96454.16;5074677;28;19979;-74
2022/08/23 06:30:48;;;;;;;;;;;;;;;21.73;49.20;96461.31;5074358;28;20350;-74
2022/08/23 06:33:14;;;;;;;;;;;;;;;21.66;48.98;96464.34;5073393;28;20334;-74
2022/08/23 06:35:40;;;;;;;;;;;;;;;21.63;49.69;96463.06;5073985;28;19958;-74
2022/08/23 06:38:06;;;;;;;;;;;;;;;21.63;49.91;96472.94;5074013;28;19961;-75
2022/08/23 06:40:35;;;;;;;;;;;;;;;21.74;49.29;96469.03;5073748;28;19967;-74
2022/08/23 06:43:01;;;;;;;;;;;;;;;21.83;48.60;96461.94;5073716;28;20328;-74
2022/08/23 06:45:27;;;;;;;;;;;;;;;21.73;49.34;96475.44;5073964;28;20004;-74
2022/08/23 06:47:54;;;;;;;;;;;;;;;21.63;49.09;96475.59;5073639;28;19968;-74
2022/08/23 06:50:20;;;;;;;;;;;;;;;21.64;49.00;96472.63;5073725;28;19969;-75
2022/08/23 06:52:47;;;;;;;;;;;;;;;21.74;49.71;96482.38;5073843;28;19999;-74
2022/08/23 06:55:13;;;;;;;;;;;;;;;21.76;49.09;96474.09;5073806;28;19966;-74
2022/08/23 06:57:39;;;;;;;;;;;;;;;21.78;49.80;96486.06;5073713;28;19965;-73
2022/08/23 07:00:05;;;;;;;;;;;;;;;21.93;49.88;96478.91;5073755;28;20456;-73
2022/08/23 07:02:31;;;;;;;;;;;;;;;22.05;48.82;96479.28;5074156;28;20347;-74
2022/08/23 07:04:58;;;;;;;;;;;;;;;22.08;48.32;96481.34;5073703;28;19956;-74
2022/08/23 07:07:24;;;;;;;;;;;;;;;22.22;48.29;96481.41;5073504;28;19983;-74
2022/08/23 07:09:50;;;;;;;;;;;;;;;22.38;47.03;96474.75;5073435;28;19976;-74
2022/08/23 07:12:18;;;;;;;;;;;;;;;22.52;47.96;96482.81;5073493;28;19963;-74
2022/08/23 07:14:44;;;;;;;;;;;;;;;22.70;47.61;96487.28;5073705;28;19992;-74
2022/08/23 07:17:11;;;;;;;;;;;;;;;22.80;46.95;96480.94;5073125;28;19973;-74
2022/08/23 07:19:37;;;;;;;;;;;;;;;22.85;46.92;96483.56;5073426;28;19982;-74
2022/08/23 07:22:04;;;;;;;;;;;;;;;22.81;46.05;96479.09;5073553;28;20004;-74
2022/08/23 07:24:31;;;;;;;;;;;;;;;22.78;47.48;96491.16;5073820;28;19972;-74
2022/08/23 07:26:56;;;;;;;;;;;;;;;22.75;46.48;96494.44;5073421;28;19958;-73
2022/08/23 07:29:23;;;;;;;;;;;;;;;22.67;46.42;96487.88;5073273;28;19973;-74
2022/08/23 07:31:50;;;;;;;;;;;;;;;22.69;46.30;96493.72;5073417;28;19952;-74
2022/08/23 07:34:16;;;;;;;;;;;;;;;22.81;46.40;96495.13;5073579;28;19960;-74
2022/08/23 07:36:43;;;;;;;;;;;;;;;22.99;46.09;96496.91;5073497;28;19972;-74
2022/08/23 07:39:09;;;;;;;;;;;;;;;23.05;45.37;96492.31;5073196;28;19953;-74
2022/08/23 07:41:37;;;;;;;;;;;;;;;23.01;45.33;96497.44;5073316;28;19957;-74
2022/08/23 07:44:04;;;;;;;;;;;;;;;23.02;45.47;96503.59;5073194;28;20049;-74
2022/08/23 07:46:31;;;;;;;;;;;;;;;23.12;46.62;96519.47;5073247;28;19972;-74
2022/08/23 07:48:59;;;;;;;;;;;;;;;23.00;45.17;96503.88;5073038;28;19971;-74
2022/08/23 07:51:25;;;;;;;;;;;;;;;23.04;44.75;96510.25;5073108;28;19963;-75
2022/08/23 07:53:51;;;;;;;;;;;;;;;23.00;45.06;96505.75;5073100;28;19969;-74
2022/08/23 07:56:18;;;;;;;;;;;;;;;22.96;45.18;96499.41;5072028;28;20336;-74
2022/08/23 07:58:44;;;;;;;;;;;;;;;22.99;45.90;96506.81;5073041;28;19955;-73
2022/08/23 08:01:11;;;;;;;;;;;;;;;23.16;46.44;96509.75;5073164;28;20022;-73
2022/08/23 08:03:37;;;;;;;;;;;;;;;23.36;45.81;96515.78;5073004;28;20431;-73
2022/08/23 08:06:11;;;;;;;;;;;;;;;23.58;44.76;96509.72;5073114;28;19963;-73
2022/08/23 08:08:39;;;;;;;;;;;;;;;23.77;44.98;96520.31;5072964;28;19983;-74
2022/08/23 08:11:06;;;;;;;;;;;;;;;23.94;43.67;96506.28;5072903;28;19968;-73
2022/08/23 08:13:34;;;;;;;;;;;;;;;23.99;44.54;96515.00;5072965;28;19985;-74
2022/08/23 08:16:00;;;;;;;;;;;;;;;24.15;44.61;96512.78;5072875;28;19991;-73
2022/08/23 08:18:26;;;;;;;;;;;;;;;24.33;43.58;96510.22;5073033;28;19962;-74
2022/08/23 08:20:51;;;;;;;;;;;;;;;24.53;43.23;96515.13;5072829;28;20453;-74
2022/08/23 08:23:17;;;;;;;;;;;;;;;24.56;41.18;96514.50;5073124;28;19976;-74
2022/08/23 08:25:43;;;;;;;;;;;;;;;24.55;41.02;96514.78;5073258;28;19971;-73
2022/08/23 08:28:09;;;;;;;;;;;;;;;24.61;42.55;96519.75;5071556;28;20386;-74
2022/08/23 08:30:35;;;;;;;;;;;;;;;24.67;41.56;96523.88;5075565;28;19997;-74
2022/08/23 08:33:01;;;;;;;;;;;;;;;24.76;42.87;96526.63;5076325;28;20003;-74
2022/08/23 08:35:27;;;;;;;;;;;;;;;24.90;41.27;96531.88;5076684;28;20479;-75
2022/08/23 08:37:53;;;;;;;;;;;;;;;24.83;39.85;96529.63;5076314;28;20535;-73
2022/08/23 08:40:23;;;;;;;;;;;;;;;24.92;41.12;96535.03;5076684;28;20061;-73
2022/08/23 08:43:10;;;;;;;;;;;;;;;25.06;39.74;96521.53;5076087;28;19964;-75
2022/08/23 08:45:52;;;;;;;;;;;;;;;25.04;38.89;96535.25;5067515;28;20434;-74
2022/08/23 08:48:21;;;;;;;;;;;;;;;25.15;38.41;96526.94;5076049;28;20452;-74
2022/08/23 08:50:48;;;;;;;;;;;;;;;25.25;38.24;96530.16;5076570;28;19964;-74
2022/08/23 08:53:17;;;;;;;;;;;;;;;25.26;38.00;96529.06;5076330;28;20053;-73
2022/08/23 08:55:48;;;;;;;;;;;;;;;25.39;39.62;96538.13;5076373;28;19978;-74
2022/08/23 08:58:25;;;;;;;;;;;;;;;25.59;37.75;96535.94;5076279;28;20312;-73
2022/08/23 09:00:51;;;;;;;;;;;;;;;25.67;37.55;96533.28;5076458;28;19961;-74
2022/08/23 09:03:21;;;;;;;;;;;;;;;25.74;38.03;96532.81;5075996;28;19965;-73
2022/08/23 09:06:00;;;;;;;;;;;;;;;25.81;38.75;96549.28;5061956;28;19955;-73
2022/08/23 09:08:44;;;;;;;;;;;;;;;25.86;36.31;96529.53;5076137;28;20337;-74
2022/08/23 09:11:33;;;;;;;;;;;;;;;25.94;35.72;96534.16;5075942;28;20374;-73
2022/08/23 09:14:05;;;;;;;;;;;;;;;26.06;36.54;96528.13;5058953;28;19977;-74
2022/08/23 09:16:49;;;;;;;;;;;;;;;26.29;36.50;96532.25;5074614;28;20321;-73
2022/08/23 09:19:16;;;;;;;;;;;;;;;26.50;35.98;96528.88;5075785;28;20341;-74
2022/08/23 09:21:44;;;;;;;;;;;;;;;26.56;35.00;96535.69;5075593;28;19951;-73
2022/08/23 09:24:10;;;;;;;;;;;;;;;26.64;36.41;96540.28;5075745;28;19957;-73
2022/08/23 09:26:36;;;;;;;;;;;;;;;26.74;34.70;96525.72;5075530;28;20431;-73
2022/08/23 09:29:10;;;;;;;;;;;;;;;26.77;35.21;96529.66;5075134;28;19983;-74
2022/08/23 09:31:41;;;;;;;;;;;;;;;26.82;34.30;96527.59;5075610;28;19966;-73
2022/08/23 09:34:07;;;;;;;;;;;;;;;26.73;32.37;96527.63;5075159;28;19965;-74
2022/08/23 09:36:35;;;;;;;;;;;;;;;26.77;33.59;96533.13;5075738;28;19970;-74
2022/08/23 09:39:06;;;;;;;;;;;;;;;26.80;34.30;96537.09;5074254;28;19956;-74
2022/08/23 09:41:35;;;;;;;;;;;;;;;26.82;32.43;96526.81;5075110;28;19957;-73
2022/08/23 09:44:03;;;;;;;;;;;;;;;26.89;33.27;96530.56;5075405;28;19959;-74
2022/08/23 09:46:30;;;;;;;;;;;;;;;26.90;33.18;96526.00;5075398;28;19963;-73
2022/08/23 09:49:00;;;;;;;;;;;;;;;26.94;31.25;96526.91;5074878;28;19963;-73
2022/08/23 09:51:36;;;;;;;;;;;;;;;26.97;33.30;96530.88;5074832;28;19959;-75
2022/08/23 09:54:02;;;;;;;;;;;;;;;27.08;33.17;96522.13;5075030;28;20406;-73
2022/08/23 09:56:30;;;;;;;;;;;;;;;27.14;32.93;96528.13;5075073;28;20326;-73
2022/08/23 09:58:56;;;;;;;;;;;;;;;27.23;33.19;96525.41;5074278;28;19961;-73
2022/08/23 10:01:27;;;;;;;;;;;;;;;27.30;33.16;96525.72;5074631;28;19959;-74
2022/08/23 10:04:05;;;;;;;;;;;;;;;27.29;30.76;96507.97;5074887;28;19957;-73
2022/08/23 10:06:33;;;;;;;;;;;;;;;27.26;33.31;96527.47;5073335;28;19958;-74
2022/08/23 10:09:03;;;;;;;;;;;;;;;27.20;31.21;96521.44;5074591;28;20337;-73
2022/08/23 10:11:44;;;;;;;;;;;;;;;27.25;31.58;96512.41;5074512;28;19973;-73
2022/08/23 10:14:14;;;;;;;;;;;;;;;27.39;30.41;96514.91;5074318;28;19991;-73
2022/08/23 10:16:52;;;;;;;;;;;;;;;27.47;31.58;96514.84;5074348;28;20340;-74
2022/08/23 10:19:24;;;;;;;;;;;;;;;27.53;29.40;96510.06;5074522;28;19962;-74
2022/08/23 10:21:50;;;;;;;;;;;;;;;27.62;32.60;96521.56;5074367;28;19964;-73
2022/08/23 10:24:27;;;;;;;;;;;;;;;27.73;30.67;96509.28;5074539;28;19961;-74
2022/08/23 10:30:06;;;;;;;;;;;;;;;27.81;32.16;96512.25;5072442;28;19955;-73
2022/08/23 10:32:45;;;;;;;;;;;;;;;27.89;27.98;96500.66;5074246;28;20028;-73
2022/08/23 10:35:26;;;;;;;;;;;;;;;28.05;29.97;96503.53;5058610;28;19954;-74
2022/08/23 10:38:05;;;;;;;;;;;;;;;28.16;29.08;96499.34;5074145;28;19954;-73
2022/08/23 10:40:44;;;;;;;;;;;;;;;28.30;29.27;96499.03;5062671;28;19954;-74
2022/08/23 10:43:24;;;;;;;;;;;;;;;28.51;28.15;96494.41;5072645;28;19955;-73
2022/08/23 10:45:51;;;;;;;;;;;;;;;28.72;30.02;96501.66;5074249;28;20405;-74
2022/08/23 10:48:17;;;;;;;;;;;;;;;28.84;nan;96492.81;5073886;28;20431;-73
2022/08/23 10:51:05;;;;;;;;;;;;;;;28.95;27.52;96502.03;5073778;28;19955;-73
2022/08/23 10:53:45;;;;;;;;;;;;;;;29.16;29.24;96499.28;5072255;28;20583;-73
2022/08/23 10:56:17;;;;;;;;;;;;;;;29.25;27.49;96491.88;5074231;28;19962;-73
2022/08/23 10:58:43;;;;;;;;;;;;;;;29.27;26.75;96481.50;5074018;28;19966;-73
2022/08/23 11:01:13;;;;;;;;;;;;;;;29.17;27.21;96489.25;5073833;28;19964;-73
2022/08/23 11:03:43;;;;;;;;;;;;;;;29.02;27.19;96485.28;5059202;28;20322;-73
2022/08/23 11:06:28;;;;;;;;;;;;;;;29.10;28.00;96489.81;5073704;28;19960;-73
2022/08/23 11:09:08;;;;;;;;;;;;;;;29.23;29.46;96488.72;5063440;28;20455;-73
2022/08/23 11:11:40;;;;;;;;;;;;;;;29.30;27.08;96469.22;5073081;28;20341;-73
2022/08/23 11:14:09;;;;;;;;;;;;;;;29.46;27.35;96472.00;5073311;28;20445;-73
2022/08/23 11:16:37;;;;;;;;;;;;;;;29.61;26.59;96462.41;5073610;28;19974;-73
2022/08/23 11:19:03;;;;;;;;;;;;;;;29.73;26.12;96457.03;5073493;28;19980;-73
2022/08/23 11:21:39;;;;;;;;;;;;;;;29.79;25.55;96462.97;5073415;28;19969;-73
2022/08/23 11:24:05;;;;;;;;;;;;;;;29.86;25.46;96466.69;5073439;28;19964;-73
2022/08/23 11:26:38;;;;;;;;;;;;;;;29.81;26.96;96466.91;5073329;28;19979;-73
2022/08/23 11:29:04;;;;;;;;;;;;;;;29.89;26.39;96471.41;5073350;28;19982;-73
2022/08/23 11:31:36;;;;;;;;;;;;;;;30.10;27.16;96473.13;5073400;28;20014;-73
2022/08/23 11:34:09;;;;;;;;;;;;;;;30.03;24.87;96470.22;5073489;28;19966;-73
2022/08/23 11:36:35;;;;;;;;;;;;;;;30.14;26.22;96471.31;5073321;28;19973;-73
2022/08/23 11:39:04;;;;;;;;;;;;;;;30.30;26.05;96458.66;5073382;28;19985;-74
2022/08/23 11:41:33;;;;;;;;;;;;;;;30.33;26.41;96465.28;5073241;28;19960;-74
2022/08/23 11:44:02;;;;;;;;;;;;;;;30.27;24.88;96470.13;5073502;28;19977;-73
2022/08/23 11:46:30;;;;;;;;;;;;;;;30.08;24.37;96462.66;5073471;28;19983;-73
2022/08/23 11:48:59;;;;;;;;;;;;;;;30.23;26.19;96457.63;5073227;28;19983;-73
2022/08/23 11:51:26;;;;;;;;;;;;;;;30.51;25.68;96463.84;5073433;28;19975;-73
2022/08/23 11:53:51;;;;;;;;;;;;;;;30.57;25.41;96463.56;5073094;28;19967;-74
2022/08/23 11:56:20;;;;;;;;;;;;;;;30.71;24.95;96461.22;5073532;28;19956;-73
2022/08/23 11:58:49;;;;;;;;;;;;;;;30.89;24.61;96454.38;5073066;28;19970;-73
2022/08/23 12:01:15;;;;;;;;;;;;;;;31.11;25.04;96455.66;5073572;28;19968;-73
2022/08/23 12:03:53;;;;;;;;;;;;;;;31.38;24.48;96457.81;5072495;28;20344;-73
2022/08/23 12:06:19;;;;;;;;;;;;;;;31.58;23.72;96462.13;5076866;28;19955;-73
2022/08/23 12:08:54;;;;;;;;;;;;;;;31.42;25.53;96454.03;5076729;28;19978;-73
2022/08/23 12:11:21;;;;;;;;;;;;;;;30.92;24.46;96452.88;5077262;28;19964;-73
2022/08/23 12:13:50;;;;;;;;;;;;;;;30.43;25.10;96464.78;5076593;28;19973;-73
2022/08/23 12:16:17;;;;;;;;;;;;;;;30.37;25.33;96459.97;5076740;28;19960;-73
2022/08/23 12:18:43;;;;;;;;;;;;;;;30.60;25.41;96458.25;5076881;28;19962;-73
2022/08/23 12:21:16;;;;;;;;;;;;;;;30.83;25.57;96457.66;5076658;28;19962;-73
2022/08/23 12:23:44;;;;;;;;;;;;;;;31.12;25.70;96453.72;5062915;28;19963;-74
2022/08/23 12:26:33;;;;;;;;;;;;;;;31.27;23.64;96455.63;5076910;28;19960;-73
2022/08/23 12:29:03;;;;;;;;;;;;;;;31.15;22.60;96445.69;5077195;28;19978;-74
2022/08/23 12:31:37;;;;;;;;;;;;;;;30.85;22.64;96444.53;5076540;28;19960;-73
2022/08/23 12:34:29;;;;;;;;;;;;;;;30.72;24.12;96447.34;5076667;28;20418;-73
2022/08/23 12:37:01;;;;;;;;;;;;;;;30.59;24.65;96456.66;5067909;28;20317;-73
2022/08/23 12:39:33;;;;;;;;;;;;;;;30.82;24.52;96456.84;5076302;28;20317;-74
2022/08/23 12:42:12;;;;;;;;;;;;;;;30.92;23.41;96440.13;5076397;28;19969;-73
2022/08/23 12:44:38;;;;;;;;;;;;;;;30.96;23.86;96453.75;5076893;28;19970;-73
2022/08/23 12:47:18;;;;;;;;;;;;;;;30.74;22.70;96445.09;5076555;28;19968;-73
2022/08/23 12:49:56;;;;;;;;;;;;;;;30.56;24.12;96446.56;5076477;28;20379;-74
2022/08/23 12:52:27;;;;;;;;;;;;;;;30.55;23.46;96439.56;5064974;28;19969;-73
2022/08/23 12:54:56;;;;;;;;;;;;;;;30.49;22.66;96428.22;5062057;28;19969;-74
2022/08/23 12:57:34;;;;;;;;;;;;;;;30.41;23.85;96444.59;5076446;28;19961;-73
2022/08/23 13:00:21;;;;;;;;;;;;;;;30.20;23.08;96444.78;5075943;28;19958;-73
2022/08/23 13:02:50;;;;;;;;;;;;;;;29.98;23.63;96441.50;5075842;28;19959;-73
2022/08/23 13:05:30;;;;;;;;;;;;;;;29.92;23.23;96434.75;5076226;28;20313;-74
2022/08/23 13:07:56;;;;;;;;;;;;;;;29.85;23.47;96438.06;5061390;28;19979;-73
2022/08/23 13:10:23;;;;;;;;;;;;;;;29.93;24.73;96436.34;5075860;28;19988;-73